Time;durP1;ratioP1;P1;durP2;ratioP2;P2;SDS_P1;SDS_P2;PMS_P1;PMS_P2;Temp;Humidity;BMP_temperature;BMP_pressure;BME280_temperature;BME280_humidity;BME280_pressure;Samples;Min_cycle;Max_cycle;Signal;HPM_P1;HPM_P2
2022/06/04 00:01:26;;;;;;;4.63;2.10;;;21.70;99.90;;;;;;4931732;29;20051;-80
2022/06/04 00:03:52;;;;;;;2.78;2.03;;;21.70;99.90;;;;;;4930938;29;20051;-79
2022/06/04 00:06:18;;;;;;;4.90;2.10;;;21.70;99.90;;;;;;4946184;29;20032;-79
2022/06/04 00:08:43;;;;;;;10.32;2.53;;;21.60;99.90;;;;;;4929838;29;20020;-77
2022/06/04 00:16:38;;;;;;;5.37;2.40;;;21.60;99.90;;;;;;4940960;29;20037;-77
2022/06/04 00:19:04;;;;;;;4.63;2.40;;;21.50;99.90;;;;;;4933377;29;21522;-79
2022/06/04 00:21:30;;;;;;;5.95;2.15;;;21.50;99.90;;;;;;4931981;29;20024;-80
2022/06/04 00:23:56;;;;;;;3.20;2.20;;;21.40;99.90;;;;;;4943794;29;20555;-79
2022/06/04 00:26:22;;;;;;;2.10;1.90;;;21.40;99.90;;;;;;4932082;29;20063;-78
2022/06/04 00:28:48;;;;;;;8.90;2.25;;;21.40;99.90;;;;;;4926588;29;20032;-80
2022/06/04 00:31:17;;;;;;;5.03;2.10;;;21.40;99.90;;;;;;4925238;29;20032;-80
2022/06/04 00:33:43;;;;;;;5.60;2.38;;;21.40;99.90;;;;;;4905637;29;20036;-80
2022/06/04 00:36:09;;;;;;;5.65;2.47;;;21.30;99.90;;;;;;4923343;29;20075;-80
2022/06/04 00:38:36;;;;;;;5.82;2.25;;;21.30;99.90;;;;;;4922615;29;20099;-80
2022/06/04 00:41:36;;;;;;;4.00;2.45;;;21.30;99.90;;;;;;4924932;29;20365;-79
2022/06/04 00:44:25;;;;;;;5.32;2.47;;;21.30;99.90;;;;;;4924864;29;20091;-80
2022/06/04 00:47:00;;;;;;;13.63;2.17;;;21.20;99.90;;;;;;4925171;29;20716;-78
2022/06/04 00:49:25;;;;;;;4.57;2.33;;;21.10;99.90;;;;;;4944976;29;20068;-79
2022/06/04 00:51:52;;;;;;;4.90;2.20;;;21.20;99.90;;;;;;4924538;29;20036;-79
2022/06/04 00:54:19;;;;;;;4.45;2.28;;;21.10;99.90;;;;;;4939576;29;20070;-79
2022/06/04 00:57:06;;;;;;;4.57;2.42;;;21.10;99.90;;;;;;4939305;29;20020;-80
2022/06/04 00:59:41;;;;;;;4.80;2.45;;;21.10;99.90;;;;;;4925160;29;20036;-79
2022/06/04 01:02:41;;;;;;;4.57;2.22;;;21.10;99.90;;;;;;4928101;29;20111;-80
2022/06/04 01:05:21;;;;;;;4.07;2.70;;;21.10;99.90;;;;;;4944052;29;20044;-78
2022/06/04 01:08:17;;;;;;;4.45;2.50;;;21.10;99.90;;;;;;4930916;29;20036;-79
2022/06/04 01:10:46;;;;;;;3.47;2.47;;;21.10;99.90;;;;;;4932409;29;20076;-79
2022/06/04 01:13:19;;;;;;;7.00;2.45;;;21.10;99.90;;;;;;4933240;29;20043;-78
2022/06/04 01:16:34;;;;;;;3.45;2.45;;;21.00;99.90;;;;;;4935514;29;20020;-78
2022/06/04 01:19:46;;;;;;;3.80;2.47;;;21.00;99.90;;;;;;4912638;29;20036;-78
2022/06/04 01:22:18;;;;;;;3.80;2.35;;;21.00;99.90;;;;;;4933605;29;20125;-81
2022/06/04 01:24:56;;;;;;;3.17;2.40;;;21.00;99.90;;;;;;4924318;29;20032;-79
2022/06/04 01:27:25;;;;;;;6.07;2.50;;;21.00;99.90;;;;;;4922675;29;20449;-79
2022/06/04 01:30:07;;;;;;;3.63;2.30;;;20.90;99.90;;;;;;4924592;29;20024;-81
2022/06/04 01:32:50;;;;;;;3.22;2.30;;;20.90;99.90;;;;;;4928136;29;20032;-79
2022/06/04 01:35:23;;;;;;;4.97;2.40;;;20.90;99.90;;;;;;4923192;29;20040;-79
2022/06/04 01:38:02;;;;;;;4.13;2.35;;;20.80;99.90;;;;;;4924121;29;20032;-78
2022/06/04 01:43:36;;;;;;;3.15;2.42;;;20.70;99.90;;;;;;4924710;29;20036;-80
2022/06/04 01:46:09;;;;;;;7.13;2.67;;;20.70;99.90;;;;;;4924437;29;20032;-78
2022/06/04 01:48:40;;;;;;;6.15;2.40;;;20.60;99.90;;;;;;4939364;29;20044;-79
2022/06/04 01:51:07;;;;;;;5.65;2.30;;;20.60;99.90;;;;;;4941649;29;20039;-79
2022/06/04 01:53:38;;;;;;;4.68;2.58;;;20.60;99.90;;;;;;4925433;29;20456;-80
2022/06/04 01:56:26;;;;;;;3.80;2.50;;;20.60;99.90;;;;;;4940377;29;20036;-79
2022/06/04 01:59:07;;;;;;;4.32;2.55;;;20.50;99.90;;;;;;4941242;29;20058;-79
2022/06/04 02:01:34;;;;;;;3.30;2.47;;;20.50;99.90;;;;;;4950013;29;20032;-78
2022/06/04 02:04:13;;;;;;;3.22;2.45;;;20.40;99.90;;;;;;5018007;23;20035;-83
2022/06/04 02:07:29;;;;;;;2.72;2.42;;;20.40;99.90;;;;;;4994887;28;20086;-86
2022/06/04 02:09:35;;;;;;;4.43;2.70;;;20.40;99.90;;;;;;4992885;28;20037;-86
2022/06/04 02:12:04;;;;;;;6.07;2.80;;;20.30;99.90;;;;;;4996276;28;20031;-84
2022/06/04 02:14:30;;;;;;;3.28;2.58;;;20.30;99.90;;;;;;4989986;28;20027;-85
2022/06/04 02:17:09;;;;;;;3.63;2.78;;;20.30;99.90;;;;;;4971652;29;20027;-86
2022/06/04 02:19:34;;;;;;;8.18;3.03;;;20.30;99.90;;;;;;4970861;29;20055;-86
2022/06/04 02:22:02;;;;;;;6.18;2.95;;;20.30;99.90;;;;;;4968145;29;20027;-86
2022/06/04 02:24:28;;;;;;;3.45;2.42;;;20.20;99.90;;;;;;4966645;29;20031;-87
2022/06/04 02:26:54;;;;;;;5.78;2.22;;;20.20;99.90;;;;;;4982529;28;20680;-83
2022/06/04 02:29:20;;;;;;;5.90;2.42;;;20.20;99.90;;;;;;4967678;29;20035;-87
2022/06/04 02:31:51;;;;;;;3.15;2.50;;;20.20;99.90;;;;;;4971020;28;20099;-85
2022/06/04 02:34:50;;;;;;;6.28;2.45;;;20.20;99.90;;;;;;4980126;28;20047;-82
2022/06/04 02:37:22;;;;;;;2.75;2.35;;;20.20;99.90;;;;;;4978237;28;20067;-84
2022/06/04 02:40:21;;;;;;;5.13;2.80;;;20.10;99.90;;;;;;4977073;28;20027;-82
2022/06/04 02:43:06;;;;;;;7.22;2.40;;;20.10;99.90;;;;;;4975799;29;20034;-83
2022/06/04 02:45:39;;;;;;;5.25;2.58;;;20.10;99.90;;;;;;4975005;29;20039;-82
2022/06/04 02:48:38;;;;;;;2.65;2.30;;;20.00;99.90;;;;;;4991811;28;20023;-83
2022/06/04 02:51:22;;;;;;;4.57;2.72;;;20.00;99.90;;;;;;4991284;28;20039;-84
2022/06/04 02:53:50;;;;;;;4.53;2.30;;;20.00;99.90;;;;;;4978595;28;20098;-85
2022/06/04 02:56:24;;;;;;;3.88;2.58;;;20.00;99.90;;;;;;4974138;29;20046;-85
2022/06/04 02:58:56;;;;;;;3.72;2.42;;;20.00;99.90;;;;;;4974506;29;20035;-84
2022/06/04 03:01:23;;;;;;;4.05;2.53;;;20.00;99.90;;;;;;4975323;28;20034;-84
2022/06/04 03:03:49;;;;;;;3.22;2.10;;;20.00;99.90;;;;;;4976932;29;20027;-83
2022/06/04 03:06:41;;;;;;;3.45;2.03;;;20.00;99.90;;;;;;4976800;29;20095;-83
2022/06/04 03:09:10;;;;;;;3.55;2.22;;;20.10;99.90;;;;;;4973270;29;20059;-83
2022/06/04 03:11:45;;;;;;;3.67;2.20;;;20.10;99.90;;;;;;4974580;29;20084;-86
2022/06/04 03:14:12;;;;;;;3.58;2.38;;;20.10;99.90;;;;;;4975388;29;20038;-83
2022/06/04 03:16:39;;;;;;;2.15;1.95;;;20.10;99.90;;;;;;4976238;29;20031;-83
2022/06/04 03:19:07;;;;;;;7.65;2.05;;;20.20;99.90;;;;;;4977955;29;20110;-81
2022/06/04 03:21:41;;;;;;;3.33;2.30;;;20.20;99.90;;;;;;4978011;28;20233;-83
2022/06/04 03:24:09;;;;;;;3.73;2.10;;;20.30;99.90;;;;;;4978621;28;20043;-83
2022/06/04 03:26:35;;;;;;;4.88;2.35;;;20.30;99.90;;;;;;4976629;28;20283;-85
2022/06/04 03:29:01;;;;;;;3.80;2.50;;;20.30;99.90;;;;;;4977552;28;20042;-83
2022/06/04 03:31:28;;;;;;;5.55;2.40;;;20.30;99.90;;;;;;4978344;28;20087;-82
2022/06/04 03:33:55;;;;;;;4.47;2.33;;;20.20;99.90;;;;;;4978822;28;20046;-82
2022/06/04 03:36:21;;;;;;;4.13;2.35;;;20.20;99.90;;;;;;4978554;28;20008;-80
2022/06/04 03:38:51;;;;;;;2.75;2.08;;;20.20;99.90;;;;;;4977965;28;20023;-84
2022/06/04 03:41:17;;;;;;;4.13;2.50;;;20.20;99.90;;;;;;4977661;28;20074;-83
2022/06/04 03:43:46;;;;;;;3.20;2.40;;;20.20;99.90;;;;;;4977798;29;20035;-82
2022/06/04 03:46:13;;;;;;;2.72;2.17;;;20.20;99.90;;;;;;4974898;28;20039;-84
2022/06/04 03:48:39;;;;;;;5.13;2.10;;;20.20;99.90;;;;;;4967388;29;20167;-84
2022/06/04 03:51:05;;;;;;;6.13;2.65;;;20.20;99.90;;;;;;4990427;28;20035;-84
2022/06/04 03:53:31;;;;;;;2.72;2.30;;;20.20;99.90;;;;;;4975256;28;20031;-86
2022/06/04 03:55:57;;;;;;;4.00;2.28;;;20.30;99.90;;;;;;4975336;29;20045;-89
2022/06/04 03:58:29;;;;;;;4.60;2.58;;;20.20;99.90;;;;;;4957283;29;20087;-87
2022/06/04 04:00:56;;;;;;;2.40;2.20;;;20.20;99.90;;;;;;4974172;28;20042;-88
2022/06/04 04:03:23;;;;;;;9.15;2.55;;;20.30;99.90;;;;;;4974216;28;20023;-86
2022/06/04 04:05:52;;;;;;;7.43;2.78;;;20.40;99.90;;;;;;4973061;28;20166;-81
2022/06/04 04:08:21;;;;;;;6.95;2.60;;;20.40;99.90;;;;;;4970882;28;20034;-87
2022/06/04 04:10:47;;;;;;;6.82;2.92;;;20.50;99.90;;;;;;4957449;29;20035;-87
2022/06/04 04:13:16;;;;;;;4.78;2.13;;;20.50;99.90;;;;;;4967414;28;20020;-87
2022/06/04 04:15:43;;;;;;;3.55;2.22;;;20.60;99.90;;;;;;4955609;29;20102;-84
2022/06/04 04:18:10;;;;;;;4.30;2.47;;;20.70;99.90;;;;;;4963552;29;20382;-86
2022/06/04 04:20:38;;;;;;;4.07;2.75;;;20.80;99.90;;;;;;4965949;29;20050;-86
2022/06/04 04:23:07;;;;;;;3.10;2.38;;;20.80;99.90;;;;;;4967567;28;20028;-86
2022/06/04 04:25:34;;;;;;;6.07;2.25;;;20.90;99.90;;;;;;4968491;29;20132;-87
2022/06/04 04:28:01;;;;;;;3.17;2.15;;;20.90;99.90;;;;;;4950017;29;20484;-86
2022/06/04 04:30:30;;;;;;;3.30;2.45;;;20.90;99.90;;;;;;4954854;29;20032;-88
2022/06/04 04:32:59;;;;;;;7.05;2.67;;;21.00;99.90;;;;;;4960053;29;20030;-85
2022/06/04 04:35:28;;;;;;;5.30;2.40;;;21.10;99.90;;;;;;4960566;29;20095;-85
2022/06/04 04:37:55;;;;;;;5.97;2.50;;;21.10;99.90;;;;;;4972801;29;20050;-85
2022/06/04 04:40:23;;;;;;;4.45;2.17;;;21.20;99.90;;;;;;4958264;29;20050;-84
2022/06/04 04:42:49;;;;;;;3.35;2.17;;;21.30;99.90;;;;;;4958997;29;20071;-86
2022/06/04 04:45:17;;;;;;;6.72;2.40;;;21.20;99.90;;;;;;4953674;29;20027;-83
2022/06/04 04:47:45;;;;;;;3.75;2.28;;;21.30;99.90;;;;;;4954372;29;20015;-84
2022/06/04 04:50:14;;;;;;;4.50;2.25;;;21.30;99.90;;;;;;4958514;29;20091;-84
2022/06/04 04:52:40;;;;;;;2.92;1.92;;;21.40;99.90;;;;;;4961847;29;20096;-82
2022/06/04 04:55:06;;;;;;;3.25;2.15;;;21.50;99.90;;;;;;4962355;29;20047;-82
2022/06/04 04:57:32;;;;;;;5.75;2.05;;;21.50;99.90;;;;;;4961864;29;20027;-83
2022/06/04 04:59:58;;;;;;;6.68;2.53;;;21.60;99.90;;;;;;4961276;29;20031;-83
2022/06/04 05:02:24;;;;;;;3.20;2.00;;;21.60;99.90;;;;;;4956971;29;20032;-84
2022/06/04 05:04:50;;;;;;;4.32;2.30;;;21.90;99.90;;;;;;4959076;29;20023;-80
2022/06/04 05:07:15;;;;;;;5.53;2.53;;;22.20;99.90;;;;;;4974334;28;20047;-83
2022/06/04 05:09:42;;;;;;;5.60;1.92;;;22.40;99.90;;;;;;4977189;28;20027;-83
2022/06/04 05:12:09;;;;;;;5.32;1.83;;;22.50;99.90;;;;;;4977967;28;20035;-85
2022/06/04 05:14:36;;;;;;;2.83;1.85;;;22.70;99.90;;;;;;4977849;28;20043;-83
2022/06/04 05:17:02;;;;;;;3.67;1.83;;;22.80;99.90;;;;;;4962297;29;20089;-84
2022/06/04 05:19:28;;;;;;;3.00;1.98;;;23.00;99.90;;;;;;4976394;28;20027;-85
2022/06/04 05:21:55;;;;;;;2.50;1.67;;;23.10;99.90;;;;;;4974496;29;20028;-84
2022/06/04 05:24:40;;;;;;;2.78;1.45;;;23.20;99.90;;;;;;4961206;29;20052;-85
2022/06/04 05:27:06;;;;;;;2.22;1.48;;;23.20;99.90;;;;;;4961232;29;20040;-85
2022/06/04 05:29:34;;;;;;;3.10;1.60;;;23.20;99.90;;;;;;4976211;28;20039;-84
2022/06/04 05:32:02;;;;;;;2.67;1.85;;;23.10;99.90;;;;;;4960066;29;20042;-84
2022/06/04 05:34:28;;;;;;;4.00;1.80;;;22.90;99.90;;;;;;4975665;28;20030;-85
2022/06/04 05:36:54;;;;;;;2.55;1.70;;;22.70;99.90;;;;;;4959194;29;20050;-85
2022/06/04 05:39:21;;;;;;;5.75;1.67;;;22.70;99.90;;;;;;4974293;29;20095;-84
2022/06/04 05:41:48;;;;;;;2.05;1.77;;;22.70;99.90;;;;;;4975824;28;20020;-85
2022/06/04 05:44:14;;;;;;;2.58;1.70;;;22.70;99.90;;;;;;4960524;29;20047;-86
2022/06/04 05:46:42;;;;;;;4.82;1.55;;;22.70;99.90;;;;;;4960259;29;20022;-88
2022/06/04 05:49:10;;;;;;;7.60;1.92;;;22.80;99.90;;;;;;4961629;29;20024;-84
2022/06/04 05:51:38;;;;;;;4.57;1.75;;;22.90;99.90;;;;;;4961285;29;20040;-84
2022/06/04 05:54:04;;;;;;;3.35;1.98;;;23.00;99.90;;;;;;4977139;28;20024;-85
2022/06/04 05:56:32;;;;;;;5.03;2.08;;;23.10;99.90;;;;;;4976572;28;20012;-84
2022/06/04 05:59:01;;;;;;;5.15;1.98;;;23.20;99.90;;;;;;4961343;29;20024;-85
2022/06/04 06:01:31;;;;;;;2.88;1.73;;;23.30;99.90;;;;;;4974157;28;20043;-86
2022/06/04 06:03:58;;;;;;;3.30;1.83;;;23.30;99.90;;;;;;4955727;29;20047;-86
2022/06/04 06:06:29;;;;;;;3.22;1.70;;;23.40;99.90;;;;;;4956883;29;20036;-88
2022/06/04 06:08:57;;;;;;;2.65;1.60;;;23.40;99.90;;;;;;4971096;29;20039;-88
2022/06/04 06:11:23;;;;;;;4.63;1.73;;;23.30;99.90;;;;;;4955199;29;20476;-87
2022/06/04 06:13:50;;;;;;;3.25;1.63;;;23.50;99.90;;;;;;4956216;29;20035;-87
2022/06/04 06:16:19;;;;;;;2.92;1.88;;;23.60;99.90;;;;;;4970134;29;20170;-87
2022/06/04 06:18:45;;;;;;;4.47;1.90;;;23.70;99.90;;;;;;4957377;29;20054;-86
2022/06/04 06:21:18;;;;;;;3.83;1.65;;;23.90;99.90;;;;;;4954324;29;20038;-87
2022/06/04 06:23:46;;;;;;;1.77;1.30;;;24.10;99.90;;;;;;4951872;29;20038;-88
2022/06/04 06:26:19;;;;;;;5.03;1.63;;;24.20;99.90;;;;;;4956350;29;20032;-87
2022/06/04 06:28:45;;;;;;;4.75;1.85;;;24.10;99.90;;;;;;4953698;29;20103;-85
2022/06/04 06:31:18;;;;;;;3.33;1.73;;;24.10;99.90;;;;;;4958262;29;20059;-86
2022/06/04 06:33:44;;;;;;;4.15;1.55;;;24.20;99.90;;;;;;4958337;29;20028;-87
2022/06/04 06:36:13;;;;;;;6.82;2.05;;;24.30;99.90;;;;;;4958789;29;20036;-86
2022/06/04 06:38:40;;;;;;;2.60;1.60;;;24.40;99.90;;;;;;4973411;29;20051;-87
2022/06/04 06:41:07;;;;;;;4.60;2.00;;;24.40;99.90;;;;;;4958070;29;20054;-87
2022/06/04 06:43:36;;;;;;;4.78;1.75;;;24.40;99.90;;;;;;4958941;29;20125;-89
2022/06/04 06:46:07;;;;;;;4.55;1.98;;;24.50;99.90;;;;;;4971077;28;20048;-88
2022/06/04 06:48:35;;;;;;;2.38;1.73;;;24.50;99.90;;;;;;4952727;29;20063;-87
2022/06/04 06:51:10;;;;;;;4.80;1.70;;;24.70;99.90;;;;;;4956351;29;20008;-87
2022/06/04 06:53:36;;;;;;;3.65;1.85;;;24.70;99.90;;;;;;4954570;29;20046;-88
2022/06/04 06:56:33;;;;;;;7.03;1.75;;;24.80;99.90;;;;;;4966467;29;20079;-88
2022/06/04 06:59:00;;;;;;;2.80;1.95;;;24.70;99.90;;;;;;4959741;29;20039;-88
2022/06/04 07:01:27;;;;;;;5.22;2.30;;;24.80;99.90;;;;;;4953030;29;20035;-88
2022/06/04 07:03:55;;;;;;;4.60;2.10;;;24.90;99.90;;;;;;4952324;29;20020;-89
2022/06/04 07:06:51;;;;;;;5.93;1.95;;;25.00;99.90;;;;;;4966918;29;20039;-88
2022/06/04 07:09:19;;;;;;;5.13;2.05;;;25.20;99.90;;;;;;4948154;29;20054;-88
2022/06/04 07:11:45;;;;;;;6.15;2.20;;;25.20;99.90;;;;;;4952436;29;20035;-88
2022/06/04 07:14:13;;;;;;;3.03;2.10;;;25.10;99.90;;;;;;4954862;29;20027;-88
2022/06/04 07:16:40;;;;;;;4.75;2.20;;;25.00;99.90;;;;;;4972491;28;20023;-86
2022/06/04 07:19:06;;;;;;;7.38;2.25;;;24.80;99.90;;;;;;4960355;29;20032;-86
2022/06/04 07:21:32;;;;;;;5.55;2.13;;;24.80;99.90;;;;;;4960014;29;20090;-87
2022/06/04 07:23:59;;;;;;;5.07;2.38;;;24.70;99.90;;;;;;4967895;29;20059;-87
2022/06/04 07:26:25;;;;;;;4.45;1.80;;;24.60;99.90;;;;;;4970469;29;20020;-87
2022/06/04 07:28:52;;;;;;;3.67;2.50;;;24.60;99.90;;;;;;4974261;28;20031;-88
2022/06/04 07:31:18;;;;;;;3.28;2.08;;;24.40;99.90;;;;;;4956928;29;20404;-85
2022/06/04 07:33:46;;;;;;;3.90;2.30;;;24.40;99.90;;;;;;4955492;29;20035;-87
2022/06/04 07:36:22;;;;;;;5.03;2.50;;;24.30;99.90;;;;;;4970243;29;20028;-89
2022/06/04 07:38:48;;;;;;;5.72;2.38;;;24.40;99.90;;;;;;4970870;29;20034;-86
2022/06/04 07:41:29;;;;;;;5.55;2.63;;;24.50;99.90;;;;;;4955936;29;20477;-88
2022/06/04 07:43:55;;;;;;;3.28;2.47;;;24.50;99.90;;;;;;4957077;29;20055;-87
2022/06/04 07:46:23;;;;;;;6.82;2.80;;;24.50;99.90;;;;;;4957592;29;20027;-87
2022/06/04 07:48:49;;;;;;;3.25;2.30;;;24.50;99.90;;;;;;4973483;28;20024;-87
2022/06/04 07:51:16;;;;;;;3.03;2.25;;;24.50;99.90;;;;;;4958715;29;20024;-89
2022/06/04 07:53:42;;;;;;;6.38;2.72;;;24.60;99.90;;;;;;4969972;29;20506;-88
2022/06/04 07:56:12;;;;;;;5.18;2.33;;;24.70;99.90;;;;;;4951924;29;20502;-88
2022/06/04 07:58:39;;;;;;;2.72;2.22;;;24.80;99.90;;;;;;4952563;29;20108;-88
2022/06/04 08:01:05;;;;;;;3.40;2.25;;;25.00;99.90;;;;;;4966449;29;20075;-89
2022/06/04 08:03:33;;;;;;;6.55;2.92;;;25.10;99.90;;;;;;4968932;29;20020;-87
2022/06/04 08:06:01;;;;;;;4.57;2.80;;;25.30;99.90;;;;;;4992727;23;20058;-88
2022/06/04 08:08:27;;;;;;;5.15;2.80;;;25.20;99.90;;;;;;4948414;29;20384;-86
2022/06/04 08:10:53;;;;;;;4.72;2.30;;;25.30;99.90;;;;;;4950967;29;20023;-85
2022/06/04 08:15:45;;;;;;;6.03;2.67;;;25.40;99.90;;;;;;4947548;29;20063;-88
2022/06/04 08:18:11;;;;;;;4.05;3.03;;;25.50;99.90;;;;;;4944815;29;20035;-86
2022/06/04 08:20:42;;;;;;;5.22;3.15;;;25.60;99.90;;;;;;4946732;29;20403;-87
2022/06/04 08:23:09;;;;;;;5.95;3.28;;;25.60;99.90;;;;;;4948090;29;20058;-87
2022/06/04 08:25:41;;;;;;;4.43;3.03;;;25.60;99.90;;;;;;4945568;29;20031;-87
2022/06/04 08:28:08;;;;;;;6.13;3.25;;;25.70;99.90;;;;;;4973660;28;20043;-89
2022/06/04 08:30:34;;;;;;;7.40;3.35;;;26.00;99.90;;;;;;4958338;28;20024;-87
2022/06/04 08:33:00;;;;;;;3.00;2.70;;;26.20;99.90;;;;;;4958749;28;20134;-88
2022/06/04 08:35:26;;;;;;;7.78;2.90;;;26.30;99.90;;;;;;4954441;29;20071;-87
2022/06/04 08:37:51;;;;;;;5.72;2.92;;;26.20;99.90;;;;;;4946972;29;20119;-88
2022/06/04 08:40:38;;;;;;;3.63;3.30;;;26.30;99.90;;;;;;4947842;29;20035;-87
2022/06/04 08:43:28;;;;;;;3.03;2.65;;;26.40;99.90;;;;;;4949400;29;20031;-88
2022/06/04 08:45:55;;;;;;;4.50;3.00;;;26.90;99.90;;;;;;4957717;29;20038;-88
2022/06/04 08:48:39;;;;;;;9.77;3.45;;;27.00;99.90;;;;;;4974626;29;20011;-87
2022/06/04 08:51:14;;;;;;;4.22;2.83;;;26.80;99.90;;;;;;4953059;29;20031;-88
2022/06/04 08:53:40;;;;;;;6.07;2.60;;;27.00;99.90;;;;;;4950206;29;20035;-87
2022/06/04 08:59:10;;;;;;;5.10;2.58;;;27.00;99.90;;;;;;4949284;29;20040;-87
2022/06/04 09:01:54;;;;;;;7.00;2.88;;;27.00;99.90;;;;;;4954917;29;20042;-84
2022/06/04 09:04:42;;;;;;;6.85;2.88;;;27.00;99.90;;;;;;4951190;29;20031;-86
2022/06/04 09:07:18;;;;;;;4.55;2.78;;;26.90;99.90;;;;;;4949094;29;20039;-86
2022/06/04 09:09:57;;;;;;;4.35;2.50;;;26.60;99.90;;;;;;4947011;29;20035;-86
2022/06/04 09:12:29;;;;;;;4.50;2.70;;;26.60;99.90;;;;;;4956281;28;20043;-84
2022/06/04 09:15:29;;;;;;;5.78;3.20;;;26.60;99.90;;;;;;4959509;28;20050;-84
2022/06/04 09:17:58;;;;;;;4.45;2.60;;;26.70;99.90;;;;;;4959524;29;20034;-85
2022/06/04 09:20:40;;;;;;;4.38;3.05;;;26.90;99.90;;;;;;4958329;29;20031;-85
2022/06/04 09:23:22;;;;;;;5.72;2.95;;;27.00;99.90;;;;;;4950266;29;20099;-87
2022/06/04 09:26:16;;;;;;;3.28;2.97;;;26.90;99.90;;;;;;4958001;29;20023;-83
2022/06/04 09:29:00;;;;;;;4.32;2.40;;;26.80;99.90;;;;;;4960500;28;20028;-84
2022/06/04 09:31:34;;;;;;;6.25;2.55;;;26.80;99.90;;;;;;4955915;29;20032;-83
2022/06/04 09:34:07;;;;;;;5.45;3.55;;;26.80;99.90;;;;;;4959523;28;20431;-84
2022/06/04 09:36:37;;;;;;;5.20;2.63;;;26.70;99.90;;;;;;4960261;29;20095;-84
2022/06/04 09:39:17;;;;;;;7.15;2.53;;;26.60;99.90;;;;;;4960233;29;20020;-84
2022/06/04 09:41:51;;;;;;;4.70;2.67;;;26.90;99.90;;;;;;4960780;28;20204;-84
2022/06/04 09:44:17;;;;;;;2.90;2.17;;;27.40;99.90;;;;;;4944399;29;20051;-82
2022/06/04 09:46:44;;;;;;;3.08;2.38;;;27.80;99.90;;;;;;4975194;28;20027;-85
2022/06/04 09:49:42;;;;;;;6.68;2.70;;;28.30;99.90;;;;;;4959797;29;20059;-84
2022/06/04 09:52:20;;;;;;;3.20;2.10;;;29.10;99.50;;;;;;4946269;29;20130;-84
2022/06/04 09:54:53;;;;;;;4.53;2.05;;;30.00;98.40;;;;;;4965886;28;20111;-86
2022/06/04 09:57:26;;;;;;;2.42;1.70;;;30.90;96.90;;;;;;4957027;28;20020;-82
2022/06/04 09:59:57;;;;;;;3.40;1.95;;;31.50;96.00;;;;;;4960994;28;20035;-84
2022/06/04 10:02:24;;;;;;;6.43;2.50;;;32.20;94.70;;;;;;4961094;28;20083;-82
2022/06/04 10:05:06;;;;;;;3.55;1.67;;;33.40;93.20;;;;;;4960693;28;20028;-81
2022/06/04 10:07:35;;;;;;;5.78;1.60;;;34.10;90.50;;;;;;4960898;28;20046;-83
2022/06/04 10:10:27;;;;;;;7.00;1.80;;;34.40;86.00;;;;;;4957799;28;20074;-84
2022/06/04 10:15:47;;;;;;;3.35;1.65;;;35.80;81.60;;;;;;4959671;28;20040;-83
2022/06/04 10:18:16;;;;;;;1.73;1.45;;;36.60;79.40;;;;;;4960926;28;20024;-83
2022/06/04 10:20:52;;;;;;;4.38;1.70;;;36.60;79.20;;;;;;4960658;28;20024;-84
2022/06/04 10:23:18;;;;;;;5.35;1.77;;;37.60;77.50;;;;;;4960692;28;20032;-83
2022/06/04 10:26:25;;;;;;;4.72;1.65;;;38.60;72.60;;;;;;4960287;28;20054;-83
2022/06/04 10:29:28;;;;;;;2.13;1.63;;;39.30;71.00;;;;;;4953737;28;20039;-85
2022/06/04 10:32:03;;;;;;;5.07;1.70;;;40.60;67.20;;;;;;4956779;29;20028;-86
2022/06/04 10:34:38;;;;;;;4.78;1.90;;;40.80;64.90;;;;;;4954323;29;20039;-86
2022/06/04 10:37:47;;;;;;;1.60;1.17;;;41.20;62.90;;;;;;4956215;28;20036;-85
2022/06/04 10:40:12;;;;;;;2.63;1.63;;;41.00;61.60;;;;;;4955481;29;20031;-84
2022/06/04 10:43:26;;;;;;;3.42;1.58;;;41.50;60.90;;;;;;4956200;29;20027;-85
2022/06/04 10:46:21;;;;;;;4.30;1.42;;;41.70;60.30;;;;;;4938477;29;20036;-84
2022/06/04 10:49:12;;;;;;;3.20;1.75;;;41.70;59.30;;;;;;4938437;29;20063;-83
2022/06/04 10:52:08;;;;;;;2.97;1.42;;;42.30;59.00;;;;;;4956254;29;20067;-86
2022/06/04 10:54:47;;;;;;;4.25;1.25;;;42.30;57.00;;;;;;4958302;29;20040;-84
2022/06/04 10:57:32;;;;;;;4.53;1.35;;;41.10;57.60;;;;;;4933707;29;20067;-84
2022/06/04 11:00:01;;;;;;;5.93;1.30;;;40.60;57.90;;;;;;4941361;29;20039;-83
2022/06/04 11:02:43;;;;;;;6.93;1.60;;;40.40;57.30;;;;;;4954277;29;20038;-85
2022/06/04 11:05:56;;;;;;;1.40;1.30;;;40.70;57.40;;;;;;4958964;28;20041;-84
2022/06/04 11:08:30;;;;;;;4.72;1.90;;;41.10;57.00;;;;;;4942778;29;20028;-85
2022/06/04 11:11:04;;;;;;;;;;;42.40;55.80;;;;;;4943406;29;20028;-86
2022/06/04 11:13:38;;;;;;;3.90;1.70;;;42.70;55.10;;;;;;4944571;29;19915;-86
2022/06/04 11:16:30;;;;;;;5.78;1.92;;;43.00;54.10;;;;;;4945895;29;20404;-85
2022/06/04 11:19:13;;;;;;;3.22;1.50;;;43.90;53.40;;;;;;4944775;29;20031;-86
2022/06/04 11:21:47;;;;;;;2.75;1.50;;;44.20;52.70;;;;;;4945454;29;20049;-85
2022/06/04 11:24:35;;;;;;;5.72;1.65;;;44.90;52.10;;;;;;4944976;29;20046;-84
2022/06/04 11:27:37;;;;;;;5.95;1.80;;;45.20;51.80;;;;;;4949244;29;20036;-85
2022/06/04 11:30:12;;;;;;;3.97;1.55;;;45.90;51.30;;;;;;4955755;29;20036;-84
2022/06/04 11:32:47;;;;;;;3.22;1.45;;;45.90;50.80;;;;;;4957223;29;20071;-84
2022/06/04 11:35:30;;;;;;;3.00;1.50;;;46.00;50.70;;;;;;4951029;29;20059;-85
2022/06/04 11:38:23;;;;;;;4.37;1.60;;;45.80;50.20;;;;;;4948240;29;20031;-82
2022/06/04 11:40:57;;;;;;;3.67;1.77;;;44.60;50.90;;;;;;4947644;29;20648;-86
2022/06/04 11:43:43;;;;;;;5.25;1.50;;;45.40;50.70;;;;;;4946170;29;20449;-84
2022/06/04 11:46:37;;;;;;;2.70;1.70;;;45.70;50.10;;;;;;4949188;29;20031;-83
2022/06/04 11:49:22;;;;;;;5.40;1.80;;;45.60;50.00;;;;;;4955289;29;20059;-82
2022/06/04 11:52:03;;;;;;;5.55;1.60;;;45.40;50.20;;;;;;4953765;29;20028;-84
2022/06/04 11:54:42;;;;;;;4.07;1.20;;;45.20;49.70;;;;;;4952511;29;20024;-83
2022/06/04 11:57:29;;;;;;;2.78;1.70;;;44.70;49.90;;;;;;4953268;29;20028;-84
2022/06/04 12:00:26;;;;;;;2.17;1.50;;;44.70;49.90;;;;;;4956272;28;20036;-82
2022/06/04 12:03:08;;;;;;;3.53;1.40;;;44.80;49.70;;;;;;4954132;29;20059;-82
2022/06/04 12:05:46;;;;;;;5.80;1.80;;;45.20;49.70;;;;;;4953352;29;20091;-84
2022/06/04 12:08:23;;;;;;;3.63;1.40;;;44.80;49.60;;;;;;4954417;29;20046;-84
2022/06/04 12:11:15;;;;;;;3.95;1.60;;;43.90;50.30;;;;;;4969038;29;20031;-85
2022/06/04 12:13:50;;;;;;;4.20;1.77;;;44.20;50.20;;;;;;4956251;29;20044;-83
2022/06/04 12:16:28;;;;;;;3.72;1.65;;;44.60;49.40;;;;;;4957450;29;20036;-87
2022/06/04 12:18:57;;;;;;;3.95;1.55;;;44.70;49.80;;;;;;4957280;29;20031;-83
2022/06/04 12:24:31;;;;;;;2.53;1.63;;;46.40;49.00;;;;;;4957217;29;20055;-82
2022/06/04 12:27:15;;;;;;;5.40;1.63;;;46.10;48.60;;;;;;4972071;29;20024;-83
2022/06/04 12:29:49;;;;;;;3.58;1.80;;;45.80;48.90;;;;;;4955715;29;20051;-83
2022/06/04 12:32:21;;;;;;;2.28;1.55;;;46.30;48.30;;;;;;4956980;29;20042;-83
2022/06/04 12:34:50;;;;;;;2.17;1.20;;;46.10;48.20;;;;;;4957612;29;20036;-82
2022/06/04 12:37:27;;;;;;;4.15;1.75;;;45.70;48.50;;;;;;4958652;29;20055;-83
2022/06/04 12:39:53;;;;;;;6.57;1.90;;;45.60;48.70;;;;;;4958392;29;20023;-83
2022/06/04 12:42:19;;;;;;;1.77;1.38;;;44.90;48.90;;;;;;4959074;28;20051;-82
2022/06/04 12:45:32;;;;;;;2.13;1.75;;;43.90;49.60;;;;;;4961770;28;20042;-82
2022/06/04 12:47:58;;;;;;;5.53;1.73;;;42.80;50.50;;;;;;4951654;28;20073;-83
2022/06/04 12:50:30;;;;;;;5.60;2.03;;;43.20;50.90;;;;;;4961868;28;20091;-80
2022/06/04 12:53:06;;;;;;;3.60;1.45;;;43.90;50.40;;;;;;4958907;28;20040;-86
2022/06/04 12:55:38;;;;;;;2.80;1.67;;;43.20;49.70;;;;;;4953361;29;20055;-84
2022/06/04 12:58:38;;;;;;;4.85;1.63;;;41.90;50.10;;;;;;4950474;29;20039;-85
2022/06/04 13:01:33;;;;;;;3.30;1.83;;;39.90;52.20;;;;;;4949379;29;20027;-84
2022/06/04 13:04:10;;;;;;;5.47;1.60;;;38.40;54.20;;;;;;4952793;29;20035;-85
2022/06/04 13:06:48;;;;;;;4.03;1.60;;;38.00;54.40;;;;;;4963517;29;20047;-84
2022/06/04 13:09:36;;;;;;;5.65;1.90;;;38.60;54.20;;;;;;4948450;29;20028;-84
2022/06/04 13:12:21;;;;;;;3.38;1.60;;;39.60;53.80;;;;;;4948937;29;20399;-87
2022/06/04 13:15:28;;;;;;;2.67;1.70;;;40.70;52.80;;;;;;4948791;29;20031;-83
2022/06/04 13:17:54;;;;;;;4.18;1.60;;;41.50;52.80;;;;;;4943624;29;20048;-83
2022/06/04 13:20:30;;;;;;;1.63;1.30;;;41.20;52.10;;;;;;4954074;29;20066;-84
2022/06/04 13:23:01;;;;;;;3.72;1.75;;;39.20;50.30;;;;;;4959823;29;20043;-83
2022/06/04 13:25:36;;;;;;;2.80;1.67;;;37.80;54.20;;;;;;4962542;28;20036;-84
2022/06/04 13:28:02;;;;;;;5.95;2.25;;;36.70;56.40;;;;;;4961837;28;20088;-84
2022/06/04 13:30:33;;;;;;;5.28;2.15;;;35.40;59.10;;;;;;4961991;28;20041;-82
2022/06/04 13:33:12;;;;;;;3.53;1.52;;;34.80;60.20;;;;;;4961336;28;20023;-82
2022/06/04 13:35:44;;;;;;;4.70;1.92;;;34.60;60.70;;;;;;4960884;28;20046;-82
2022/06/04 13:38:43;;;;;;;7.35;2.05;;;34.60;60.80;;;;;;4961004;28;20037;-83
2022/06/04 13:44:14;;;;;;;9.98;2.00;;;35.20;58.90;;;;;;4961439;28;20035;-84
2022/06/04 13:46:41;;;;;;;3.42;2.00;;;35.90;57.00;;;;;;4961584;28;20028;-83